sensor_id;sensor_type;location;lat;lon;timestamp;temperature;humidity
23719;DHT22;43322;52.230;5.702;2022-07-29T00:01:24;16.20;99.90
23719;DHT22;43322;52.230;5.702;2022-07-29T00:03:52;16.20;99.90
23719;DHT22;43322;52.230;5.702;2022-07-29T00:06:19;16.20;99.90
23719;DHT22;43322;52.230;5.702;2022-07-29T00:08:46;16.20;99.90
23719;DHT22;43322;52.230;5.702;2022-07-29T00:11:13;16.20;99.90
23719;DHT22;43322;52.230;5.702;2022-07-29T00:13:40;16.20;99.90
23719;DHT22;43322;52.230;5.702;2022-07-29T00:16:06;16.20;99.90
23719;DHT22;43322;52.230;5.702;2022-07-29T00:18:33;16.20;99.90
23719;DHT22;43322;52.230;5.702;2022-07-29T00:21:02;16.10;99.90
23719;DHT22;43322;52.230;5.702;2022-07-29T00:23:28;16.10;99.90
23719;DHT22;43322;52.230;5.702;2022-07-29T00:25:55;16.10;99.90
23719;DHT22;43322;52.230;5.702;2022-07-29T00:28:22;16.10;99.90
23719;DHT22;43322;52.230;5.702;2022-07-29T00:30:48;16.10;99.90
23719;DHT22;43322;52.230;5.702;2022-07-29T00:33:15;16.00;99.90
23719;DHT22;43322;52.230;5.702;2022-07-29T00:35:42;16.00;99.90
23719;DHT22;43322;52.230;5.702;2022-07-29T00:38:14;16.00;99.90
23719;DHT22;43322;52.230;5.702;2022-07-29T00:40:42;16.00;99.90
23719;DHT22;43322;52.230;5.702;2022-07-29T00:43:09;15.90;99.90
23719;DHT22;43322;52.230;5.702;2022-07-29T00:45:36;15.90;99.90
23719;DHT22;43322;52.230;5.702;2022-07-29T00:48:04;16.00;99.90
23719;DHT22;43322;52.230;5.702;2022-07-29T00:50:32;16.00;99.90
23719;DHT22;43322;52.230;5.702;2022-07-29T00:52:59;15.90;99.90
23719;DHT22;43322;52.230;5.702;2022-07-29T00:55:29;15.90;99.90
23719;DHT22;43322;52.230;5.702;2022-07-29T00:57:57;15.80;99.90
23719;DHT22;43322;52.230;5.702;2022-07-29T01:00:26;15.80;99.90
23719;DHT22;43322;52.230;5.702;2022-07-29T01:02:53;15.80;99.90
23719;DHT22;43322;52.230;5.702;2022-07-29T01:05:21;15.80;99.90
23719;DHT22;43322;52.230;5.702;2022-07-29T01:07:52;15.80;99.90
23719;DHT22;43322;52.230;5.702;2022-07-29T01:10:21;15.80;99.90
23719;DHT22;43322;52.230;5.702;2022-07-29T01:12:51;15.70;99.90
23719;DHT22;43322;52.230;5.702;2022-07-29T01:15:19;15.70;99.90
23719;DHT22;43322;52.230;5.702;2022-07-29T01:17:52;15.80;99.90
23719;DHT22;43322;52.230;5.702;2022-07-29T01:20:25;15.70;99.90
23719;DHT22;43322;52.230;5.702;2022-07-29T01:23:14;15.70;99.90
23719;DHT22;43322;52.230;5.702;2022-07-29T01:26:02;15.70;99.90
23719;DHT22;43322;52.230;5.702;2022-07-29T01:28:54;15.70;99.90
23719;DHT22;43322;52.230;5.702;2022-07-29T01:31:27;15.60;99.90
23719;DHT22;43322;52.230;5.702;2022-07-29T01:33:58;15.60;99.90
23719;DHT22;43322;52.230;5.702;2022-07-29T01:36:29;15.60;99.90
23719;DHT22;43322;52.230;5.702;2022-07-29T01:39:02;15.60;99.90
23719;DHT22;43322;52.230;5.702;2022-07-29T01:41:32;15.60;99.90
23719;DHT22;43322;52.230;5.702;2022-07-29T01:44:10;15.60;99.90
23719;DHT22;43322;52.230;5.702;2022-07-29T01:46:40;15.60;99.90
23719;DHT22;43322;52.230;5.702;2022-07-29T01:49:11;15.60;99.90
23719;DHT22;43322;52.230;5.702;2022-07-29T01:51:43;15.60;99.90
23719;DHT22;43322;52.230;5.702;2022-07-29T01:54:14;15.80;99.90
23719;DHT22;43322;52.230;5.702;2022-07-29T01:56:43;15.60;99.90
23719;DHT22;43322;52.230;5.702;2022-07-29T01:59:13;15.60;99.90
23719;DHT22;43322;52.230;5.702;2022-07-29T02:01:42;15.60;99.90
23719;DHT22;43322;52.230;5.702;2022-07-29T02:04:11;15.50;99.90
23719;DHT22;43322;52.230;5.702;2022-07-29T02:06:40;15.60;99.90
23719;DHT22;43322;52.230;5.702;2022-07-29T02:09:10;15.50;99.90
23719;DHT22;43322;52.230;5.702;2022-07-29T02:11:39;15.50;99.90
23719;DHT22;43322;52.230;5.702;2022-07-29T02:14:07;15.40;99.90
23719;DHT22;43322;52.230;5.702;2022-07-29T02:16:38;15.40;99.90
23719;DHT22;43322;52.230;5.702;2022-07-29T02:19:06;15.40;99.90
23719;DHT22;43322;52.230;5.702;2022-07-29T02:21:35;15.40;99.90
23719;DHT22;43322;52.230;5.702;2022-07-29T02:24:04;15.40;99.90
23719;DHT22;43322;52.230;5.702;2022-07-29T02:26:33;15.50;99.90
23719;DHT22;43322;52.230;5.702;2022-07-29T02:29:01;15.50;99.90
23719;DHT22;43322;52.230;5.702;2022-07-29T02:31:31;15.50;99.90
23719;DHT22;43322;52.230;5.702;2022-07-29T02:34:00;15.50;99.90
23719;DHT22;43322;52.230;5.702;2022-07-29T02:36:30;15.50;99.90
23719;DHT22;43322;52.230;5.702;2022-07-29T02:38:59;15.50;99.90
23719;DHT22;43322;52.230;5.702;2022-07-29T02:41:29;15.60;99.90
23719;DHT22;43322;52.230;5.702;2022-07-29T02:44:02;15.60;99.90
23719;DHT22;43322;52.230;5.702;2022-07-29T02:46:32;15.60;99.90
23719;DHT22;43322;52.230;5.702;2022-07-29T02:49:07;15.60;99.90
23719;DHT22;43322;52.230;5.702;2022-07-29T02:51:41;15.60;99.90
23719;DHT22;43322;52.230;5.702;2022-07-29T02:54:10;15.60;99.90
23719;DHT22;43322;52.230;5.702;2022-07-29T02:56:41;15.50;99.90
23719;DHT22;43322;52.230;5.702;2022-07-29T02:59:11;15.50;99.90
23719;DHT22;43322;52.230;5.702;2022-07-29T03:01:42;15.50;99.90
23719;DHT22;43322;52.230;5.702;2022-07-29T03:04:12;15.50;99.90
23719;DHT22;43322;52.230;5.702;2022-07-29T03:06:42;15.50;99.90
23719;DHT22;43322;52.230;5.702;2022-07-29T03:09:10;15.40;99.90
23719;DHT22;43322;52.230;5.702;2022-07-29T03:11:38;15.50;99.90
23719;DHT22;43322;52.230;5.702;2022-07-29T03:14:06;15.50;99.90
23719;DHT22;43322;52.230;5.702;2022-07-29T03:16:34;15.50;99.90
23719;DHT22;43322;52.230;5.702;2022-07-29T03:19:03;15.50;99.90
23719;DHT22;43322;52.230;5.702;2022-07-29T03:21:31;15.40;99.90
23719;DHT22;43322;52.230;5.702;2022-07-29T03:23:58;15.50;99.90
23719;DHT22;43322;52.230;5.702;2022-07-29T03:26:25;15.40;99.90
23719;DHT22;43322;52.230;5.702;2022-07-29T03:28:52;15.40;99.90
23719;DHT22;43322;52.230;5.702;2022-07-29T03:31:19;15.40;99.90
23719;DHT22;43322;52.230;5.702;2022-07-29T03:33:46;15.40;99.90
23719;DHT22;43322;52.230;5.702;2022-07-29T03:36:13;15.40;99.90
23719;DHT22;43322;52.230;5.702;2022-07-29T03:38:42;15.40;99.90
23719;DHT22;43322;52.230;5.702;2022-07-29T03:41:11;15.40;99.90
23719;DHT22;43322;52.230;5.702;2022-07-29T03:43:41;15.40;99.90
23719;DHT22;43322;52.230;5.702;2022-07-29T03:46:10;15.40;99.90
23719;DHT22;43322;52.230;5.702;2022-07-29T03:48:42;15.40;99.90
23719;DHT22;43322;52.230;5.702;2022-07-29T03:51:13;15.40;99.90
23719;DHT22;43322;52.230;5.702;2022-07-29T03:53:41;15.40;99.90
23719;DHT22;43322;52.230;5.702;2022-07-29T03:56:10;15.40;99.90
23719;DHT22;43322;52.230;5.702;2022-07-29T03:58:41;15.30;99.90
23719;DHT22;43322;52.230;5.702;2022-07-29T04:01:08;15.30;99.90
23719;DHT22;43322;52.230;5.702;2022-07-29T04:03:36;15.30;99.90
23719;DHT22;43322;52.230;5.702;2022-07-29T04:06:04;15.30;99.90
23719;DHT22;43322;52.230;5.702;2022-07-29T04:08:32;15.30;99.90
23719;DHT22;43322;52.230;5.702;2022-07-29T04:11:00;15.30;99.90
23719;DHT22;43322;52.230;5.702;2022-07-29T04:13:27;15.30;99.90
23719;DHT22;43322;52.230;5.702;2022-07-29T04:15:54;15.30;99.90
23719;DHT22;43322;52.230;5.702;2022-07-29T04:18:21;15.30;99.90
23719;DHT22;43322;52.230;5.702;2022-07-29T04:20:48;15.30;99.90
23719;DHT22;43322;52.230;5.702;2022-07-29T04:23:15;15.40;99.90
23719;DHT22;43322;52.230;5.702;2022-07-29T04:25:43;15.20;99.90
23719;DHT22;43322;52.230;5.702;2022-07-29T04:28:11;15.30;99.90
23719;DHT22;43322;52.230;5.702;2022-07-29T04:30:38;15.60;99.90
23719;DHT22;43322;52.230;5.702;2022-07-29T04:33:06;15.30;99.90
23719;DHT22;43322;52.230;5.702;2022-07-29T04:35:35;15.30;99.90
23719;DHT22;43322;52.230;5.702;2022-07-29T04:38:03;15.20;99.90
23719;DHT22;43322;52.230;5.702;2022-07-29T04:40:30;15.30;99.90
23719;DHT22;43322;52.230;5.702;2022-07-29T04:42:58;15.20;99.90
23719;DHT22;43322;52.230;5.702;2022-07-29T04:45:27;15.20;99.90
23719;DHT22;43322;52.230;5.702;2022-07-29T04:47:54;15.20;99.90
23719;DHT22;43322;52.230;5.702;2022-07-29T04:50:21;15.30;99.90
23719;DHT22;43322;52.230;5.702;2022-07-29T04:52:48;15.30;99.90
23719;DHT22;43322;52.230;5.702;2022-07-29T04:55:15;15.30;99.90
23719;DHT22;43322;52.230;5.702;2022-07-29T04:57:43;15.30;99.90
23719;DHT22;43322;52.230;5.702;2022-07-29T05:00:11;15.30;99.90
23719;DHT22;43322;52.230;5.702;2022-07-29T05:02:39;15.30;99.90
23719;DHT22;43322;52.230;5.702;2022-07-29T05:05:06;15.30;99.90
23719;DHT22;43322;52.230;5.702;2022-07-29T05:07:33;15.30;99.90
23719;DHT22;43322;52.230;5.702;2022-07-29T05:10:00;15.30;99.90
23719;DHT22;43322;52.230;5.702;2022-07-29T05:12:27;15.40;99.90
23719;DHT22;43322;52.230;5.702;2022-07-29T05:14:54;15.30;99.90
23719;DHT22;43322;52.230;5.702;2022-07-29T05:17:21;15.30;99.90
23719;DHT22;43322;52.230;5.702;2022-07-29T05:19:49;15.30;99.90
23719;DHT22;43322;52.230;5.702;2022-07-29T05:22:17;15.30;99.90
23719;DHT22;43322;52.230;5.702;2022-07-29T05:24:44;15.30;99.90
23719;DHT22;43322;52.230;5.702;2022-07-29T05:27:10;15.40;99.90
23719;DHT22;43322;52.230;5.702;2022-07-29T05:29:37;15.40;99.90
23719;DHT22;43322;52.230;5.702;2022-07-29T05:32:05;15.50;99.90
23719;DHT22;43322;52.230;5.702;2022-07-29T05:34:32;15.60;99.90
23719;DHT22;43322;52.230;5.702;2022-07-29T05:37:00;15.60;99.90
23719;DHT22;43322;52.230;5.702;2022-07-29T05:39:27;16.50;99.90
23719;DHT22;43322;52.230;5.702;2022-07-29T05:41:54;15.60;99.90
23719;DHT22;43322;52.230;5.702;2022-07-29T05:44:21;15.60;99.90
23719;DHT22;43322;52.230;5.702;2022-07-29T05:46:48;15.60;99.90
23719;DHT22;43322;52.230;5.702;2022-07-29T05:49:15;15.60;99.90
23719;DHT22;43322;52.230;5.702;2022-07-29T05:51:41;15.60;99.90
23719;DHT22;43322;52.230;5.702;2022-07-29T05:54:10;15.60;99.90
23719;DHT22;43322;52.230;5.702;2022-07-29T05:56:36;15.70;99.90
23719;DHT22;43322;52.230;5.702;2022-07-29T05:59:03;15.70;99.90
23719;DHT22;43322;52.230;5.702;2022-07-29T06:01:30;15.70;99.90
23719;DHT22;43322;52.230;5.702;2022-07-29T06:03:57;15.70;99.90
23719;DHT22;43322;52.230;5.702;2022-07-29T06:06:24;15.70;99.90
23719;DHT22;43322;52.230;5.702;2022-07-29T06:08:51;15.80;99.90
23719;DHT22;43322;52.230;5.702;2022-07-29T06:11:19;15.80;99.90
23719;DHT22;43322;52.230;5.702;2022-07-29T06:13:46;15.80;99.90
23719;DHT22;43322;52.230;5.702;2022-07-29T06:16:13;16.50;99.90
23719;DHT22;43322;52.230;5.702;2022-07-29T06:18:40;15.90;99.90
23719;DHT22;43322;52.230;5.702;2022-07-29T06:21:08;15.80;99.90
23719;DHT22;43322;52.230;5.702;2022-07-29T06:23:36;15.80;99.90
23719;DHT22;43322;52.230;5.702;2022-07-29T06:26:03;15.70;99.90
23719;DHT22;43322;52.230;5.702;2022-07-29T06:28:32;15.80;99.90
23719;DHT22;43322;52.230;5.702;2022-07-29T06:30:59;15.70;99.90
23719;DHT22;43322;52.230;5.702;2022-07-29T06:33:25;15.80;99.90
23719;DHT22;43322;52.230;5.702;2022-07-29T06:35:52;15.90;99.90
23719;DHT22;43322;52.230;5.702;2022-07-29T06:38:20;16.00;99.90
23719;DHT22;43322;52.230;5.702;2022-07-29T06:40:47;16.00;99.90
23719;DHT22;43322;52.230;5.702;2022-07-29T06:43:26;16.00;99.90
23719;DHT22;43322;52.230;5.702;2022-07-29T06:45:55;16.10;99.90
23719;DHT22;43322;52.230;5.702;2022-07-29T06:48:22;16.10;99.90
23719;DHT22;43322;52.230;5.702;2022-07-29T06:50:49;16.20;99.90
23719;DHT22;43322;52.230;5.702;2022-07-29T06:53:16;16.20;99.90
23719;DHT22;43322;52.230;5.702;2022-07-29T06:55:43;16.40;99.90
23719;DHT22;43322;52.230;5.702;2022-07-29T06:58:10;16.60;99.90
23719;DHT22;43322;52.230;5.702;2022-07-29T07:00:39;16.80;99.90
23719;DHT22;43322;52.230;5.702;2022-07-29T07:03:09;17.00;99.90
23719;DHT22;43322;52.230;5.702;2022-07-29T07:05:35;17.40;99.90
23719;DHT22;43322;52.230;5.702;2022-07-29T07:08:04;17.20;99.90
23719;DHT22;43322;52.230;5.702;2022-07-29T07:10:32;17.20;99.90
23719;DHT22;43322;52.230;5.702;2022-07-29T07:12:59;17.40;99.90
23719;DHT22;43322;52.230;5.702;2022-07-29T07:15:26;17.70;99.90
23719;DHT22;43322;52.230;5.702;2022-07-29T07:17:53;17.90;99.90
23719;DHT22;43322;52.230;5.702;2022-07-29T07:20:21;17.90;99.90
23719;DHT22;43322;52.230;5.702;2022-07-29T07:22:48;18.20;99.90
23719;DHT22;43322;52.230;5.702;2022-07-29T07:25:15;18.20;99.90
23719;DHT22;43322;52.230;5.702;2022-07-29T07:27:42;18.40;99.90
23719;DHT22;43322;52.230;5.702;2022-07-29T07:30:10;18.40;99.90
23719;DHT22;43322;52.230;5.702;2022-07-29T07:32:37;18.50;99.90
23719;DHT22;43322;52.230;5.702;2022-07-29T07:35:05;18.60;99.90
23719;DHT22;43322;52.230;5.702;2022-07-29T07:37:33;18.70;99.90
23719;DHT22;43322;52.230;5.702;2022-07-29T07:40:00;18.80;99.90
23719;DHT22;43322;52.230;5.702;2022-07-29T07:42:27;18.80;99.90
23719;DHT22;43322;52.230;5.702;2022-07-29T07:44:54;18.80;99.90
23719;DHT22;43322;52.230;5.702;2022-07-29T07:47:21;18.90;99.90
23719;DHT22;43322;52.230;5.702;2022-07-29T07:49:50;18.80;99.90
23719;DHT22;43322;52.230;5.702;2022-07-29T07:52:18;18.60;99.90
23719;DHT22;43322;52.230;5.702;2022-07-29T07:54:47;18.50;99.90
23719;DHT22;43322;52.230;5.702;2022-07-29T07:57:14;18.50;99.90
23719;DHT22;43322;52.230;5.702;2022-07-29T07:59:42;18.50;99.90
23719;DHT22;43322;52.230;5.702;2022-07-29T08:02:09;18.50;99.90
23719;DHT22;43322;52.230;5.702;2022-07-29T08:04:36;18.40;99.90
23719;DHT22;43322;52.230;5.702;2022-07-29T08:07:06;18.40;99.90
23719;DHT22;43322;52.230;5.702;2022-07-29T08:09:33;18.30;99.90
23719;DHT22;43322;52.230;5.702;2022-07-29T08:12:02;18.50;99.90
23719;DHT22;43322;52.230;5.702;2022-07-29T08:14:31;18.50;99.90
23719;DHT22;43322;52.230;5.702;2022-07-29T08:16:58;18.60;99.90
23719;DHT22;43322;52.230;5.702;2022-07-29T08:19:25;18.60;99.90
23719;DHT22;43322;52.230;5.702;2022-07-29T08:21:52;18.50;99.90
23719;DHT22;43322;52.230;5.702;2022-07-29T08:24:19;18.60;99.90
23719;DHT22;43322;52.230;5.702;2022-07-29T08:27:05;18.80;99.90
23719;DHT22;43322;52.230;5.702;2022-07-29T08:29:32;19.00;99.90
23719;DHT22;43322;52.230;5.702;2022-07-29T08:31:59;19.10;99.90
23719;DHT22;43322;52.230;5.702;2022-07-29T08:34:26;19.30;99.90
23719;DHT22;43322;52.230;5.702;2022-07-29T08:36:54;19.40;99.90
23719;DHT22;43322;52.230;5.702;2022-07-29T08:39:21;19.50;99.90
23719;DHT22;43322;52.230;5.702;2022-07-29T08:41:48;19.70;99.90
23719;DHT22;43322;52.230;5.702;2022-07-29T08:44:17;19.90;99.90
23719;DHT22;43322;52.230;5.702;2022-07-29T08:46:44;20.30;99.90
23719;DHT22;43322;52.230;5.702;2022-07-29T08:49:11;20.60;99.90
23719;DHT22;43322;52.230;5.702;2022-07-29T08:51:40;20.70;99.90
23719;DHT22;43322;52.230;5.702;2022-07-29T08:54:09;20.70;99.90
23719;DHT22;43322;52.230;5.702;2022-07-29T08:56:36;20.50;99.90
23719;DHT22;43322;52.230;5.702;2022-07-29T08:59:05;20.30;99.90
23719;DHT22;43322;52.230;5.702;2022-07-29T09:01:34;20.20;99.90
23719;DHT22;43322;52.230;5.702;2022-07-29T09:04:04;20.30;99.90
23719;DHT22;43322;52.230;5.702;2022-07-29T09:06:34;20.50;99.90
23719;DHT22;43322;52.230;5.702;2022-07-29T09:09:03;20.70;99.90
23719;DHT22;43322;52.230;5.702;2022-07-29T09:11:32;20.80;99.90
23719;DHT22;43322;52.230;5.702;2022-07-29T09:13:59;20.90;99.90
23719;DHT22;43322;52.230;5.702;2022-07-29T09:16:26;21.20;99.90
23719;DHT22;43322;52.230;5.702;2022-07-29T09:18:54;21.30;99.90
23719;DHT22;43322;52.230;5.702;2022-07-29T09:21:21;21.40;99.90
23719;DHT22;43322;52.230;5.702;2022-07-29T09:24:07;21.60;99.90
23719;DHT22;43322;52.230;5.702;2022-07-29T09:26:35;21.60;99.90
23719;DHT22;43322;52.230;5.702;2022-07-29T09:29:08;21.50;99.90
23719;DHT22;43322;52.230;5.702;2022-07-29T09:31:38;21.40;99.90
23719;DHT22;43322;52.230;5.702;2022-07-29T09:34:07;21.40;99.90
23719;DHT22;43322;52.230;5.702;2022-07-29T09:36:41;21.40;99.90
23719;DHT22;43322;52.230;5.702;2022-07-29T09:39:09;21.50;99.90
23719;DHT22;43322;52.230;5.702;2022-07-29T09:41:46;21.70;99.90
23719;DHT22;43322;52.230;5.702;2022-07-29T09:44:13;22.40;99.90
23719;DHT22;43322;52.230;5.702;2022-07-29T09:46:40;22.60;99.90
23719;DHT22;43322;52.230;5.702;2022-07-29T09:49:19;22.60;99.90
23719;DHT22;43322;52.230;5.702;2022-07-29T09:51:46;22.70;99.90
23719;DHT22;43322;52.230;5.702;2022-07-29T09:54:23;22.60;99.90
23719;DHT22;43322;52.230;5.702;2022-07-29T09:56:51;22.30;99.90
23719;DHT22;43322;52.230;5.702;2022-07-29T09:59:19;22.20;99.90
23719;DHT22;43322;52.230;5.702;2022-07-29T10:01:49;22.10;99.90
23719;DHT22;43322;52.230;5.702;2022-07-29T10:04:16;22.10;99.90
23719;DHT22;43322;52.230;5.702;2022-07-29T10:06:58;22.20;99.90
23719;DHT22;43322;52.230;5.702;2022-07-29T10:09:25;22.30;99.90
23719;DHT22;43322;52.230;5.702;2022-07-29T10:12:07;22.40;99.90
23719;DHT22;43322;52.230;5.702;2022-07-29T10:14:36;22.60;99.90
23719;DHT22;43322;52.230;5.702;2022-07-29T10:17:05;22.70;99.90
23719;DHT22;43322;52.230;5.702;2022-07-29T10:19:32;22.90;99.90
23719;DHT22;43322;52.230;5.702;2022-07-29T10:22:03;23.00;99.90
23719;DHT22;43322;52.230;5.702;2022-07-29T10:24:31;23.40;99.90
23719;DHT22;43322;52.230;5.702;2022-07-29T10:27:00;23.90;99.90
23719;DHT22;43322;52.230;5.702;2022-07-29T10:29:27;24.60;99.90
23719;DHT22;43322;52.230;5.702;2022-07-29T10:32:06;25.70;99.90
23719;DHT22;43322;52.230;5.702;2022-07-29T10:34:53;26.70;99.90
23719;DHT22;43322;52.230;5.702;2022-07-29T10:37:33;26.80;99.90
23719;DHT22;43322;52.230;5.702;2022-07-29T10:40:11;26.30;99.90
23719;DHT22;43322;52.230;5.702;2022-07-29T10:43:05;25.50;99.90
23719;DHT22;43322;52.230;5.702;2022-07-29T10:45:34;25.10;99.90
23719;DHT22;43322;52.230;5.702;2022-07-29T10:48:04;25.10;99.90
23719;DHT22;43322;52.230;5.702;2022-07-29T10:50:53;25.00;99.90
23719;DHT22;43322;52.230;5.702;2022-07-29T10:53:22;25.40;99.90
23719;DHT22;43322;52.230;5.702;2022-07-29T10:55:50;26.20;99.90
23719;DHT22;43322;52.230;5.702;2022-07-29T10:58:18;25.80;99.90
23719;DHT22;43322;52.230;5.702;2022-07-29T11:00:47;25.50;99.90
23719;DHT22;43322;52.230;5.702;2022-07-29T11:03:42;25.30;99.90
23719;DHT22;43322;52.230;5.702;2022-07-29T11:06:10;24.80;99.90
23719;DHT22;43322;52.230;5.702;2022-07-29T11:08:38;24.20;99.90
23719;DHT22;43322;52.230;5.702;2022-07-29T11:11:35;24.00;99.90
23719;DHT22;43322;52.230;5.702;2022-07-29T11:14:06;24.30;99.90
23719;DHT22;43322;52.230;5.702;2022-07-29T11:16:59;25.00;99.90
23719;DHT22;43322;52.230;5.702;2022-07-29T11:19:27;24.80;99.90
23719;DHT22;43322;52.230;5.702;2022-07-29T11:21:54;24.40;99.90
23719;DHT22;43322;52.230;5.702;2022-07-29T11:24:23;24.00;99.90
23719;DHT22;43322;52.230;5.702;2022-07-29T11:27:07;23.60;99.90
23719;DHT22;43322;52.230;5.702;2022-07-29T11:29:35;23.50;99.90
23719;DHT22;43322;52.230;5.702;2022-07-29T11:32:12;23.70;99.90
23719;DHT22;43322;52.230;5.702;2022-07-29T11:34:40;24.50;99.90
23719;DHT22;43322;52.230;5.702;2022-07-29T11:37:15;25.20;99.90
23719;DHT22;43322;52.230;5.702;2022-07-29T11:39:44;25.60;99.90
23719;DHT22;43322;52.230;5.702;2022-07-29T11:42:37;25.80;99.90
23719;DHT22;43322;52.230;5.702;2022-07-29T11:45:05;26.80;99.90
23719;DHT22;43322;52.230;5.702;2022-07-29T11:47:34;27.60;99.90
23719;DHT22;43322;52.230;5.702;2022-07-29T11:50:03;28.30;99.90
23719;DHT22;43322;52.230;5.702;2022-07-29T11:52:32;29.10;99.90
23719;DHT22;43322;52.230;5.702;2022-07-29T11:55:05;29.80;99.90
23719;DHT22;43322;52.230;5.702;2022-07-29T11:57:34;30.00;99.90
23719;DHT22;43322;52.230;5.702;2022-07-29T12:00:03;30.00;99.90
23719;DHT22;43322;52.230;5.702;2022-07-29T12:02:42;29.60;99.90
23719;DHT22;43322;52.230;5.702;2022-07-29T12:05:09;29.80;99.90
23719;DHT22;43322;52.230;5.702;2022-07-29T12:07:37;29.90;99.90
23719;DHT22;43322;52.230;5.702;2022-07-29T12:10:08;30.40;99.90
23719;DHT22;43322;52.230;5.702;2022-07-29T12:12:35;30.90;99.90
23719;DHT22;43322;52.230;5.702;2022-07-29T12:15:16;30.90;99.90
23719;DHT22;43322;52.230;5.702;2022-07-29T12:17:46;30.60;99.90
23719;DHT22;43322;52.230;5.702;2022-07-29T12:20:13;30.80;99.90
23719;DHT22;43322;52.230;5.702;2022-07-29T12:22:42;31.20;99.90
23719;DHT22;43322;52.230;5.702;2022-07-29T12:25:13;30.90;99.90
23719;DHT22;43322;52.230;5.702;2022-07-29T12:27:41;31.20;99.90
23719;DHT22;43322;52.230;5.702;2022-07-29T12:30:11;31.90;99.90
23719;DHT22;43322;52.230;5.702;2022-07-29T12:32:44;32.00;99.90
23719;DHT22;43322;52.230;5.702;2022-07-29T12:35:13;32.30;99.90
23719;DHT22;43322;52.230;5.702;2022-07-29T12:37:42;32.30;99.90
23719;DHT22;43322;52.230;5.702;2022-07-29T12:40:12;32.70;99.90
23719;DHT22;43322;52.230;5.702;2022-07-29T12:42:40;32.90;99.90
23719;DHT22;43322;52.230;5.702;2022-07-29T12:45:08;32.60;99.90
23719;DHT22;43322;52.230;5.702;2022-07-29T12:47:52;32.50;99.90
23719;DHT22;43322;52.230;5.702;2022-07-29T12:50:19;32.30;99.90
23719;DHT22;43322;52.230;5.702;2022-07-29T12:52:46;31.40;99.90
23719;DHT22;43322;52.230;5.702;2022-07-29T12:55:15;31.40;99.90
23719;DHT22;43322;52.230;5.702;2022-07-29T12:57:46;31.10;99.90
23719;DHT22;43322;52.230;5.702;2022-07-29T13:00:14;31.40;99.90
23719;DHT22;43322;52.230;5.702;2022-07-29T13:02:42;31.60;99.90
23719;DHT22;43322;52.230;5.702;2022-07-29T13:05:10;31.20;99.90
23719;DHT22;43322;52.230;5.702;2022-07-29T13:07:38;30.90;99.90
23719;DHT22;43322;52.230;5.702;2022-07-29T13:10:15;30.80;99.90
23719;DHT22;43322;52.230;5.702;2022-07-29T13:13:02;31.40;99.90
23719;DHT22;43322;52.230;5.702;2022-07-29T13:15:29;32.00;99.90
23719;DHT22;43322;52.230;5.702;2022-07-29T13:17:56;30.20;99.90
23719;DHT22;43322;52.230;5.702;2022-07-29T13:20:24;28.80;99.90
23719;DHT22;43322;52.230;5.702;2022-07-29T13:22:53;28.00;99.90
23719;DHT22;43322;52.230;5.702;2022-07-29T13:25:26;29.20;99.90
23719;DHT22;43322;52.230;5.702;2022-07-29T13:27:54;29.50;99.90
23719;DHT22;43322;52.230;5.702;2022-07-29T13:30:22;29.10;99.90
23719;DHT22;43322;52.230;5.702;2022-07-29T13:32:49;29.40;99.90
23719;DHT22;43322;52.230;5.702;2022-07-29T13:35:17;29.80;99.90
23719;DHT22;43322;52.230;5.702;2022-07-29T13:37:43;29.60;99.90
23719;DHT22;43322;52.230;5.702;2022-07-29T13:40:11;29.90;99.90
23719;DHT22;43322;52.230;5.702;2022-07-29T13:42:41;29.70;99.90
23719;DHT22;43322;52.230;5.702;2022-07-29T13:45:09;28.30;99.90
23719;DHT22;43322;52.230;5.702;2022-07-29T13:47:37;28.20;99.90
23719;DHT22;43322;52.230;5.702;2022-07-29T13:50:06;29.10;99.90
23719;DHT22;43322;52.230;5.702;2022-07-29T13:52:33;29.40;99.90
23719;DHT22;43322;52.230;5.702;2022-07-29T13:55:01;29.70;99.90
23719;DHT22;43322;52.230;5.702;2022-07-29T13:57:28;29.80;99.90
23719;DHT22;43322;52.230;5.702;2022-07-29T13:59:56;30.20;99.90
23719;DHT22;43322;52.230;5.702;2022-07-29T14:02:23;30.50;99.90
23719;DHT22;43322;52.230;5.702;2022-07-29T14:04:50;30.20;99.90
23719;DHT22;43322;52.230;5.702;2022-07-29T14:07:17;29.30;99.90
23719;DHT22;43322;52.230;5.702;2022-07-29T14:09:44;28.10;99.90
23719;DHT22;43322;52.230;5.702;2022-07-29T14:12:11;27.50;99.90
23719;DHT22;43322;52.230;5.702;2022-07-29T14:14:38;27.20;99.90
23719;DHT22;43322;52.230;5.702;2022-07-29T14:17:06;26.90;99.90
23719;DHT22;43322;52.230;5.702;2022-07-29T14:19:32;26.70;99.90
23719;DHT22;43322;52.230;5.702;2022-07-29T14:22:03;26.80;99.90
23719;DHT22;43322;52.230;5.702;2022-07-29T14:24:30;26.70;99.90
23719;DHT22;43322;52.230;5.702;2022-07-29T14:26:57;26.60;99.90
23719;DHT22;43322;52.230;5.702;2022-07-29T14:29:24;26.40;99.90
23719;DHT22;43322;52.230;5.702;2022-07-29T14:31:51;26.10;99.90
23719;DHT22;43322;52.230;5.702;2022-07-29T14:34:19;26.00;99.90
23719;DHT22;43322;52.230;5.702;2022-07-29T14:36:46;25.80;99.90
23719;DHT22;43322;52.230;5.702;2022-07-29T14:39:12;25.60;99.90
23719;DHT22;43322;52.230;5.702;2022-07-29T14:41:41;25.50;99.90
23719;DHT22;43322;52.230;5.702;2022-07-29T14:44:08;25.40;99.90
23719;DHT22;43322;52.230;5.702;2022-07-29T14:46:35;25.40;99.90
23719;DHT22;43322;52.230;5.702;2022-07-29T14:49:01;25.40;99.90
23719;DHT22;43322;52.230;5.702;2022-07-29T14:51:30;25.50;99.90
23719;DHT22;43322;52.230;5.702;2022-07-29T14:53:56;25.50;99.90
23719;DHT22;43322;52.230;5.702;2022-07-29T14:56:25;25.40;99.90
23719;DHT22;43322;52.230;5.702;2022-07-29T14:58:52;25.30;99.90
23719;DHT22;43322;52.230;5.702;2022-07-29T15:01:19;26.00;99.90
23719;DHT22;43322;52.230;5.702;2022-07-29T15:03:45;27.30;99.90
23719;DHT22;43322;52.230;5.702;2022-07-29T15:06:12;27.60;99.90
23719;DHT22;43322;52.230;5.702;2022-07-29T15:08:40;27.70;99.90
23719;DHT22;43322;52.230;5.702;2022-07-29T15:11:07;27.50;99.90
23719;DHT22;43322;52.230;5.702;2022-07-29T15:13:34;27.10;99.90
23719;DHT22;43322;52.230;5.702;2022-07-29T15:16:01;26.60;99.90
23719;DHT22;43322;52.230;5.702;2022-07-29T15:18:28;27.20;99.90
23719;DHT22;43322;52.230;5.702;2022-07-29T15:20:55;27.80;99.90
23719;DHT22;43322;52.230;5.702;2022-07-29T15:23:22;28.80;99.90
23719;DHT22;43322;52.230;5.702;2022-07-29T15:25:50;29.20;99.90
23719;DHT22;43322;52.230;5.702;2022-07-29T15:28:17;28.60;99.90
23719;DHT22;43322;52.230;5.702;2022-07-29T15:30:43;28.70;99.90
23719;DHT22;43322;52.230;5.702;2022-07-29T15:33:10;29.10;99.90
23719;DHT22;43322;52.230;5.702;2022-07-29T15:35:37;29.30;99.90
23719;DHT22;43322;52.230;5.702;2022-07-29T15:38:04;29.40;99.90
23719;DHT22;43322;52.230;5.702;2022-07-29T15:40:31;28.50;99.90
23719;DHT22;43322;52.230;5.702;2022-07-29T15:43:04;27.90;99.90